createdAt,value
2019-03-22T00:00:41.491Z,56.10
2019-03-22T00:01:17.797Z,48.28
2019-03-22T00:01:51.464Z,56.15
2019-03-22T00:02:25.209Z,47.43
2019-03-22T00:02:59.004Z,57.83
2019-03-22T00:03:32.669Z,51.73
2019-03-22T00:04:06.575Z,52.50
2019-03-22T00:04:40.335Z,51.33
2019-03-22T00:05:14.060Z,52.93
2019-03-22T00:05:47.795Z,49.60
2019-03-22T00:06:21.537Z,46.70
2019-03-22T00:06:55.262Z,49.30
2019-03-22T00:07:29.009Z,43.23
2019-03-22T00:08:02.945Z,52.83
2019-03-22T00:08:36.607Z,54.45
2019-03-22T00:09:10.362Z,60.20
2019-03-22T00:09:44.123Z,54.80
2019-03-22T00:10:17.785Z,60.60
2019-03-22T00:10:51.535Z,67.87
2019-03-22T00:11:25.188Z,53.38
2019-03-22T00:11:58.887Z,67.62
2019-03-22T00:12:32.620Z,57.88
2019-03-22T00:13:06.347Z,58.80
2019-03-22T00:13:40.081Z,54.05
2019-03-22T00:14:13.889Z,63.48
2019-03-22T00:14:47.553Z,55.67
2019-03-22T00:15:21.368Z,62.13
2019-03-22T00:15:55.054Z,60.50
2019-03-22T00:16:28.717Z,63.87
2019-03-22T00:17:02.403Z,55.70
2019-03-22T00:17:36.150Z,62.17
2019-03-22T00:18:09.817Z,64.53
2019-03-22T00:18:43.574Z,63.38
2019-03-22T00:19:17.261Z,73.15
2019-03-22T00:19:50.928Z,61.65
2019-03-22T00:20:24.834Z,60.10
2019-03-22T00:20:58.500Z,66.37
2019-03-22T00:21:32.238Z,58.63
2019-03-22T00:22:05.982Z,53.65
2019-03-22T00:22:39.645Z,64.12
2019-03-22T00:23:13.435Z,55.63
2019-03-22T00:23:47.285Z,60.73
2019-03-22T00:24:21.464Z,51.10
2019-03-22T00:24:55.227Z,56.50
2019-03-22T00:25:28.947Z,57.90
2019-03-22T00:26:02.667Z,61.30
2019-03-22T00:26:36.410Z,53.20
2019-03-22T00:27:16.467Z,53.73
2019-03-22T00:27:45.451Z,64.82
2019-03-22T00:28:19.118Z,56.33
2019-03-22T00:28:52.778Z,57.73
2019-03-22T00:29:26.464Z,53.78
2019-03-22T00:30:00.380Z,53.45
2019-03-22T00:30:34.072Z,49.73
2019-03-22T00:31:07.813Z,58.75
2019-03-22T00:31:41.628Z,52.58
2019-03-22T00:32:15.290Z,53.95
2019-03-22T00:32:48.954Z,51.77
2019-03-22T00:33:22.684Z,53.17
2019-03-22T00:33:56.420Z,49.70
2019-03-22T00:34:30.095Z,49.48
2019-03-22T00:35:03.835Z,47.93
2019-03-22T00:35:37.557Z,49.63
2019-03-22T00:36:11.272Z,51.58
2019-03-22T00:36:45.123Z,47.40
2019-03-22T00:37:18.921Z,53.63
2019-03-22T00:37:52.652Z,50.90
2019-03-22T00:38:26.441Z,49.15
2019-03-22T00:39:00.172Z,46.63
2019-03-22T00:39:34.672Z,52.95
2019-03-22T00:40:08.701Z,53.80
2019-03-22T00:40:42.429Z,51.65
2019-03-22T00:41:16.092Z,55.30
2019-03-22T00:41:49.838Z,57.25
2019-03-22T00:42:23.583Z,55.80
2019-03-22T00:42:57.333Z,51.45
2019-03-22T00:43:30.989Z,53.83
2019-03-22T00:44:04.653Z,61.33
2019-03-22T00:44:38.340Z,51.08
2019-03-22T00:45:12.159Z,56.37
2019-03-22T00:45:45.910Z,54.18
2019-03-22T00:46:19.653Z,56.63
2019-03-22T00:46:53.331Z,51.05
2019-03-22T00:47:27.000Z,53.05
2019-03-22T00:48:00.701Z,52.27
2019-03-22T00:48:34.365Z,53.38
2019-03-22T00:49:08.089Z,57.45
2019-03-22T00:49:41.771Z,56.77
2019-03-22T00:50:15.543Z,53.92
2019-03-22T00:50:49.328Z,52.98
2019-03-22T00:51:23.089Z,47.75
2019-03-22T00:51:56.745Z,49.38
2019-03-22T00:52:30.408Z,43.00
2019-03-22T00:53:04.128Z,50.88
2019-03-22T00:53:37.865Z,48.70
2019-03-22T00:54:11.524Z,53.17
2019-03-22T00:54:46.173Z,51.05
2019-03-22T00:55:19.920Z,46.13
2019-03-22T00:55:53.582Z,50.00
2019-03-22T00:56:27.247Z,48.42
2019-03-22T00:57:01.029Z,48.63
2019-03-22T00:57:34.816Z,46.02
2019-03-22T00:58:08.473Z,49.23
2019-03-22T00:58:42.119Z,52.25
2019-03-22T00:59:15.848Z,46.73
2019-03-22T00:59:50.253Z,45.70
2019-03-22T01:00:23.982Z,47.27
2019-03-22T01:00:57.721Z,49.00
2019-03-22T01:01:31.385Z,48.10
2019-03-22T01:02:05.645Z,46.35
2019-03-22T01:02:39.364Z,44.48
2019-03-22T01:03:13.025Z,47.93
2019-03-22T01:03:46.743Z,42.15
2019-03-22T01:04:20.481Z,45.98
2019-03-22T01:04:54.260Z,51.60
2019-03-22T01:05:28.073Z,47.38
2019-03-22T01:06:01.732Z,53.55
2019-03-22T01:06:36.681Z,48.25
2019-03-22T01:07:10.344Z,46.80
2019-03-22T01:07:44.094Z,43.98
2019-03-22T01:08:17.980Z,51.73
2019-03-22T01:08:51.641Z,50.45
2019-03-22T01:09:25.390Z,52.95
2019-03-22T01:09:59.088Z,45.88
2019-03-22T01:10:32.763Z,46.42
2019-03-22T01:11:06.546Z,47.33
2019-03-22T01:11:40.279Z,46.10
2019-03-22T01:12:13.920Z,44.88
2019-03-22T01:12:47.744Z,48.45
2019-03-22T01:13:21.573Z,48.63
2019-03-22T01:13:55.249Z,46.73
2019-03-22T01:14:28.914Z,50.05
2019-03-22T01:15:02.684Z,46.00
2019-03-22T01:15:36.428Z,55.03
2019-03-22T01:16:29.022Z,53.17
2019-03-22T01:17:02.987Z,48.98
2019-03-22T01:17:36.797Z,51.28
2019-03-22T01:18:10.564Z,54.40
2019-03-22T01:18:44.253Z,51.60
2019-03-22T01:19:17.908Z,47.27
2019-03-22T01:19:51.657Z,50.55
2019-03-22T01:20:25.572Z,48.87
2019-03-22T01:20:59.299Z,52.93
2019-03-22T01:21:32.966Z,47.53
2019-03-22T01:22:06.681Z,46.50
2019-03-22T01:22:40.415Z,49.95
2019-03-22T01:23:14.081Z,52.98
2019-03-22T01:23:47.817Z,44.20
2019-03-22T01:24:21.579Z,54.23
2019-03-22T01:24:55.239Z,56.42
2019-03-22T01:25:29.044Z,49.25
2019-03-22T01:26:02.780Z,51.28
2019-03-22T01:26:36.600Z,49.48
2019-03-22T01:27:10.395Z,51.63
2019-03-22T01:27:44.139Z,57.95
2019-03-22T01:28:17.919Z,47.23
2019-03-22T01:28:51.577Z,56.10
2019-03-22T01:29:25.436Z,50.88
2019-03-22T01:29:59.180Z,53.02
2019-03-22T01:30:32.845Z,59.67
2019-03-22T01:31:06.508Z,55.17
2019-03-22T01:31:40.289Z,56.53
2019-03-22T01:32:14.030Z,55.78
2019-03-22T01:32:47.721Z,56.58
2019-03-22T01:33:21.389Z,55.73
2019-03-22T01:33:55.052Z,51.60
2019-03-22T01:34:28.826Z,50.03
2019-03-22T01:35:02.565Z,58.30
2019-03-22T01:35:36.307Z,56.53
2019-03-22T01:36:10.093Z,53.23
2019-03-22T01:36:43.744Z,53.55
2019-03-22T01:37:17.479Z,54.85
2019-03-22T01:37:51.284Z,60.03
2019-03-22T01:38:24.960Z,56.55
2019-03-22T01:38:58.633Z,53.63
2019-03-22T01:39:32.304Z,55.30
2019-03-22T01:40:06.893Z,55.25
2019-03-22T01:40:40.614Z,59.58
2019-03-22T01:41:14.413Z,57.25
2019-03-22T01:41:48.133Z,58.42
2019-03-22T01:42:21.868Z,55.15
2019-03-22T01:42:55.873Z,54.98
2019-03-22T01:43:29.609Z,57.65
2019-03-22T01:44:03.341Z,62.70
2019-03-22T01:44:37.145Z,52.88
2019-03-22T01:45:11.332Z,56.58
2019-03-22T01:45:45.087Z,58.25
2019-03-22T01:46:18.832Z,57.33
2019-03-22T01:46:52.565Z,60.78
2019-03-22T01:47:26.306Z,57.45
2019-03-22T01:48:00.043Z,60.17
2019-03-22T01:48:33.775Z,60.90
2019-03-22T01:49:07.508Z,60.70
2019-03-22T01:49:41.173Z,61.85
2019-03-22T01:50:15.148Z,51.48
2019-03-22T01:50:50.205Z,60.08
2019-03-22T01:51:25.249Z,53.78
2019-03-22T01:51:58.996Z,48.60
2019-03-22T01:52:32.661Z,60.73
2019-03-22T01:53:06.404Z,59.33
2019-03-22T01:53:40.152Z,59.35
2019-03-22T01:54:13.859Z,58.52
2019-03-22T01:54:47.537Z,62.55
2019-03-22T01:55:21.209Z,58.83
2019-03-22T01:55:54.997Z,60.33
2019-03-22T01:56:28.675Z,66.12
2019-03-22T01:57:02.412Z,60.00
2019-03-22T01:57:36.089Z,53.70
2019-03-22T01:58:09.834Z,57.27
2019-03-22T01:58:43.503Z,53.75
2019-03-22T01:59:17.285Z,57.48
2019-03-22T01:59:50.977Z,57.73
2019-03-22T02:00:24.724Z,65.60
2019-03-22T02:00:58.481Z,59.25
2019-03-22T02:01:32.229Z,59.98
2019-03-22T02:02:05.967Z,73.85
2019-03-22T02:02:39.745Z,55.70
2019-03-22T02:03:13.476Z,61.02
2019-03-22T02:03:47.139Z,63.13
2019-03-22T02:04:20.873Z,58.85
2019-03-22T02:04:54.546Z,63.87
2019-03-22T02:05:28.324Z,59.00
2019-03-22T02:06:20.932Z,64.25
2019-03-22T02:06:54.688Z,61.92
2019-03-22T02:07:28.504Z,58.13
2019-03-22T02:08:02.247Z,58.78
2019-03-22T02:08:35.982Z,52.62
2019-03-22T02:09:09.997Z,60.65
2019-03-22T02:09:43.659Z,64.55
2019-03-22T02:10:17.449Z,59.58
2019-03-22T02:10:51.139Z,63.05
2019-03-22T02:11:24.895Z,59.20
2019-03-22T02:11:58.571Z,71.70
2019-03-22T02:12:32.320Z,54.67
2019-03-22T02:13:05.981Z,57.43
2019-03-22T02:13:39.659Z,61.95
2019-03-22T02:14:13.386Z,60.40
2019-03-22T02:14:47.124Z,66.87
2019-03-22T02:15:20.873Z,64.05
2019-03-22T02:15:54.846Z,57.35
2019-03-22T02:16:28.517Z,60.73
2019-03-22T02:17:02.187Z,54.67
2019-03-22T02:17:35.929Z,57.62
2019-03-22T02:18:09.630Z,58.63
2019-03-22T02:18:43.572Z,56.18
2019-03-22T02:19:17.328Z,59.18
2019-03-22T02:19:51.056Z,54.42
2019-03-22T02:20:24.751Z,59.27
2019-03-22T02:20:58.441Z,60.90
2019-03-22T02:21:32.231Z,59.10
2019-03-22T02:22:06.000Z,63.73
2019-03-22T02:22:39.909Z,56.60
2019-03-22T02:23:13.600Z,60.63
2019-03-22T02:23:47.441Z,55.08
2019-03-22T02:24:21.098Z,56.55
2019-03-22T02:24:54.757Z,58.87
2019-03-22T02:25:28.407Z,62.38
2019-03-22T02:26:02.425Z,54.05
2019-03-22T02:26:36.098Z,61.18
2019-03-22T02:27:09.862Z,65.70
2019-03-22T02:27:43.738Z,65.80
2019-03-22T02:28:17.577Z,68.35
2019-03-22T02:28:51.247Z,61.60
2019-03-22T02:29:24.957Z,61.23
2019-03-22T02:29:58.707Z,60.60
2019-03-22T02:30:32.401Z,57.15
2019-03-22T02:31:06.215Z,60.75
2019-03-22T02:31:39.910Z,58.05
2019-03-22T02:32:13.590Z,61.15
2019-03-22T02:32:47.325Z,62.80
2019-03-22T02:33:21.069Z,65.80
2019-03-22T02:33:54.748Z,65.62
2019-03-22T02:34:28.482Z,60.67
2019-03-22T02:35:02.221Z,56.65
2019-03-22T02:35:35.902Z,66.95
2019-03-22T02:36:09.666Z,54.98
2019-03-22T02:36:43.425Z,61.75
2019-03-22T02:37:17.165Z,61.85
2019-03-22T02:37:50.854Z,56.95
2019-03-22T02:38:24.589Z,62.20
2019-03-22T02:38:58.269Z,56.02
2019-03-22T02:39:32.023Z,67.00
2019-03-22T02:40:06.343Z,60.63
2019-03-22T02:40:40.693Z,64.42
2019-03-22T02:41:14.449Z,61.98
2019-03-22T02:41:48.254Z,56.80
2019-03-22T02:42:21.999Z,65.50
2019-03-22T02:42:55.670Z,56.88
2019-03-22T02:43:29.392Z,62.30
2019-03-22T02:44:03.130Z,57.70
2019-03-22T02:44:36.795Z,57.95
2019-03-22T02:45:10.638Z,54.35
2019-03-22T02:45:44.377Z,54.73
2019-03-22T02:46:18.107Z,60.75
2019-03-22T02:46:51.955Z,58.73
2019-03-22T02:47:25.693Z,61.58
2019-03-22T02:47:59.353Z,57.50
2019-03-22T02:48:33.014Z,58.23
2019-03-22T02:49:06.698Z,66.28
2019-03-22T02:49:40.524Z,57.25
2019-03-22T02:50:18.457Z,59.88
2019-03-22T02:50:49.761Z,54.67
2019-03-22T02:51:23.553Z,56.37
2019-03-22T02:51:57.301Z,60.20
2019-03-22T02:52:31.032Z,65.42
2019-03-22T02:53:04.688Z,70.20
2019-03-22T02:53:38.447Z,65.30
2019-03-22T02:54:12.097Z,59.93
2019-03-22T02:54:45.836Z,62.48
2019-03-22T02:55:19.589Z,62.05
2019-03-22T02:55:53.278Z,64.65
2019-03-22T02:56:27.114Z,64.60
2019-03-22T02:57:00.850Z,63.90
2019-03-22T02:57:34.609Z,67.08
2019-03-22T02:58:19.747Z,70.67
2019-03-22T02:58:43.849Z,65.37
2019-03-22T02:59:17.590Z,62.33
2019-03-22T02:59:51.249Z,64.47
2019-03-22T03:00:25.054Z,59.63
2019-03-22T03:00:59.077Z,59.53
2019-03-22T03:01:32.794Z,59.95
2019-03-22T03:02:06.669Z,56.15
2019-03-22T03:02:40.497Z,57.03
2019-03-22T03:03:14.168Z,57.38
2019-03-22T03:03:47.926Z,56.55
2019-03-22T03:04:21.593Z,52.78
2019-03-22T03:04:55.284Z,60.67
2019-03-22T03:05:28.962Z,61.13
2019-03-22T03:06:02.706Z,59.08
2019-03-22T03:06:36.454Z,58.75
2019-03-22T03:07:10.225Z,64.05
2019-03-22T03:07:43.994Z,62.27
2019-03-22T03:08:17.732Z,61.88
2019-03-22T03:08:51.487Z,62.48
2019-03-22T03:09:25.231Z,54.53
2019-03-22T03:09:58.904Z,60.17
2019-03-22T03:10:32.650Z,53.83
2019-03-22T03:11:06.440Z,62.03
2019-03-22T03:11:40.271Z,56.95
2019-03-22T03:12:13.951Z,55.35
2019-03-22T03:12:47.775Z,56.08
2019-03-22T03:13:21.585Z,56.05
2019-03-22T03:13:55.330Z,63.73
2019-03-22T03:14:28.998Z,62.62
2019-03-22T03:15:02.745Z,58.23
2019-03-22T03:15:36.479Z,62.03
2019-03-22T03:16:10.228Z,55.20
2019-03-22T03:16:43.910Z,52.55
2019-03-22T03:17:17.704Z,65.67
2019-03-22T03:17:51.461Z,64.22
2019-03-22T03:18:25.150Z,53.60
2019-03-22T03:18:58.885Z,54.90
2019-03-22T03:19:32.533Z,57.83
2019-03-22T03:20:06.542Z,59.80
2019-03-22T03:20:40.202Z,56.73
2019-03-22T03:21:13.938Z,49.85
2019-03-22T03:21:47.621Z,60.05
2019-03-22T03:22:21.310Z,64.25
2019-03-22T03:22:55.082Z,60.52
2019-03-22T03:23:28.752Z,59.08
2019-03-22T03:24:02.449Z,64.92
2019-03-22T03:24:36.194Z,65.52
2019-03-22T03:25:10.001Z,61.63
2019-03-22T03:25:43.787Z,63.08
2019-03-22T03:26:17.464Z,61.85
2019-03-22T03:26:51.137Z,62.78
2019-03-22T03:27:24.833Z,65.00
2019-03-22T03:27:58.742Z,63.80
2019-03-22T03:28:37.125Z,58.25
2019-03-22T03:29:07.816Z,58.70
2019-03-22T03:29:41.481Z,65.22
2019-03-22T03:30:15.617Z,64.30
2019-03-22T03:30:49.402Z,56.53
2019-03-22T03:31:23.157Z,57.65
2019-03-22T03:31:56.922Z,55.28
2019-03-22T03:32:30.588Z,60.30
2019-03-22T03:33:04.327Z,53.73
2019-03-22T03:33:38.003Z,59.53
2019-03-22T03:34:11.678Z,58.80
2019-03-22T03:34:45.438Z,62.80
2019-03-22T03:35:19.396Z,59.00
2019-03-22T03:35:53.402Z,55.43
2019-03-22T03:36:27.151Z,53.00
2019-03-22T03:37:00.914Z,53.13
2019-03-22T03:37:34.905Z,57.00
2019-03-22T03:38:08.562Z,54.48
2019-03-22T03:38:42.224Z,56.53
2019-03-22T03:39:15.882Z,56.08
2019-03-22T03:39:49.550Z,57.20
2019-03-22T03:40:23.256Z,58.60
2019-03-22T03:40:57.006Z,54.53
2019-03-22T03:41:30.677Z,53.25
2019-03-22T03:42:04.431Z,66.47
2019-03-22T03:42:38.299Z,62.48
2019-03-22T03:43:12.031Z,68.57
2019-03-22T03:43:45.705Z,65.30
2019-03-22T03:44:19.380Z,69.53
2019-03-22T03:44:53.133Z,63.80
2019-03-22T03:45:33.374Z,62.75
2019-03-22T03:46:07.162Z,53.28
2019-03-22T03:46:40.907Z,56.83
2019-03-22T03:47:14.617Z,63.45
2019-03-22T03:47:48.294Z,55.98
2019-03-22T03:48:22.026Z,67.22
2019-03-22T03:48:55.784Z,61.98
2019-03-22T03:49:29.453Z,61.77
2019-03-22T03:50:03.564Z,53.90
2019-03-22T03:50:37.528Z,65.65
2019-03-22T03:51:11.207Z,60.43
2019-03-22T03:51:44.876Z,60.10
2019-03-22T03:52:18.642Z,60.75
2019-03-22T03:52:52.323Z,61.35
2019-03-22T03:53:26.015Z,55.92
2019-03-22T03:53:59.773Z,56.95
2019-03-22T03:54:33.469Z,55.45
2019-03-22T03:55:07.181Z,57.08
2019-03-22T03:55:40.919Z,56.00
2019-03-22T03:56:14.668Z,54.27
2019-03-22T03:56:48.402Z,57.08
2019-03-22T03:57:22.152Z,57.48
2019-03-22T03:57:55.898Z,61.30
2019-03-22T03:58:29.649Z,60.60
2019-03-22T03:59:03.443Z,60.17
2019-03-22T03:59:37.110Z,57.10
2019-03-22T04:00:11.040Z,61.05
2019-03-22T04:00:44.779Z,65.37
2019-03-22T04:01:18.541Z,58.42
2019-03-22T04:01:52.296Z,66.35
2019-03-22T04:02:25.993Z,62.38
2019-03-22T04:02:59.734Z,59.95
2019-03-22T04:03:33.485Z,65.95
2019-03-22T04:04:07.159Z,61.77
2019-03-22T04:04:40.812Z,59.58
2019-03-22T04:05:14.902Z,57.65
2019-03-22T04:05:48.817Z,54.42
2019-03-22T04:06:22.487Z,63.50
2019-03-22T04:06:56.204Z,67.10
2019-03-22T04:07:29.875Z,58.70
2019-03-22T04:08:03.856Z,63.92
2019-03-22T04:08:37.816Z,62.03
2019-03-22T04:09:11.521Z,66.28
2019-03-22T04:09:45.193Z,57.55
2019-03-22T04:10:18.975Z,61.10
2019-03-22T04:10:52.706Z,62.40
2019-03-22T04:11:26.562Z,55.35
2019-03-22T04:12:00.230Z,62.00
2019-03-22T04:12:33.999Z,54.80
2019-03-22T04:13:07.762Z,59.58
2019-03-22T04:13:41.437Z,67.47
2019-03-22T04:14:15.124Z,62.65
2019-03-22T04:14:48.893Z,57.25
2019-03-22T04:15:22.714Z,61.50
2019-03-22T04:15:56.477Z,62.43
2019-03-22T04:16:30.234Z,56.45
2019-03-22T04:17:03.974Z,55.65
2019-03-22T04:17:37.697Z,61.65
2019-03-22T04:18:11.409Z,59.53
2019-03-22T04:18:45.073Z,57.10
2019-03-22T04:19:18.822Z,64.25
2019-03-22T04:19:52.493Z,64.47
2019-03-22T04:20:26.235Z,59.15
2019-03-22T04:21:00.098Z,59.55
2019-03-22T04:21:33.836Z,60.65
2019-03-22T04:22:07.506Z,55.75
2019-03-22T04:22:41.286Z,62.48
2019-03-22T04:23:15.108Z,60.65
2019-03-22T04:23:48.774Z,66.77
2019-03-22T04:24:22.514Z,54.25
2019-03-22T04:24:56.186Z,65.37
2019-03-22T04:25:30.117Z,61.53
2019-03-22T04:26:03.904Z,68.10
2019-03-22T04:26:37.570Z,52.78
2019-03-22T04:27:11.320Z,61.70
2019-03-22T04:27:45.007Z,56.25
2019-03-22T04:28:19.435Z,65.17
2019-03-22T04:29:06.621Z,61.10
2019-03-22T04:29:28.645Z,59.95
2019-03-22T04:30:02.445Z,60.65
2019-03-22T04:30:36.259Z,61.53
2019-03-22T04:31:09.993Z,57.45
2019-03-22T04:31:43.665Z,59.67
2019-03-22T04:32:17.406Z,62.20
2019-03-22T04:32:51.077Z,57.73
2019-03-22T04:33:24.773Z,56.65
2019-03-22T04:33:58.416Z,59.95
2019-03-22T04:34:32.088Z,53.20
2019-03-22T04:35:05.961Z,53.90
2019-03-22T04:35:39.631Z,62.10
2019-03-22T04:36:13.303Z,49.75
2019-03-22T04:36:46.954Z,57.08
2019-03-22T04:37:20.681Z,55.63
2019-03-22T04:37:54.563Z,56.18
2019-03-22T04:38:28.346Z,57.15
2019-03-22T04:39:02.033Z,56.55
2019-03-22T04:39:35.697Z,58.73
2019-03-22T04:40:18.298Z,56.02
2019-03-22T04:40:51.969Z,64.60
2019-03-22T04:41:25.714Z,57.00
2019-03-22T04:41:59.450Z,55.65
2019-03-22T04:42:33.189Z,65.00
2019-03-22T04:43:07.080Z,58.28
2019-03-22T04:43:40.813Z,60.20
2019-03-22T04:44:14.479Z,61.33
2019-03-22T04:44:48.214Z,56.30
2019-03-22T04:45:21.957Z,70.80
2019-03-22T04:45:56.086Z,68.65
2019-03-22T04:46:30.009Z,56.83
2019-03-22T04:47:04.341Z,55.98
2019-03-22T04:47:38.293Z,56.90
2019-03-22T04:48:17.285Z,63.83
2019-03-22T04:48:51.837Z,60.83
2019-03-22T04:49:25.882Z,67.85
2019-03-22T04:49:59.637Z,61.10
2019-03-22T04:50:34.908Z,58.25
2019-03-22T04:51:09.277Z,60.10
2019-03-22T04:51:43.505Z,60.90
2019-03-22T04:52:17.701Z,63.60
2019-03-22T04:52:51.428Z,62.40
2019-03-22T04:53:26.289Z,58.23
2019-03-22T04:54:01.714Z,65.92
2019-03-22T04:54:36.823Z,67.55
2019-03-22T04:55:11.168Z,58.30
2019-03-22T04:55:46.473Z,63.52
2019-03-22T04:56:20.805Z,58.30
2019-03-22T04:56:55.137Z,57.35
2019-03-22T04:57:28.870Z,63.55
2019-03-22T04:58:03.621Z,61.68
2019-03-22T04:58:38.932Z,64.87
2019-03-22T04:59:19.062Z,58.33
2019-03-22T04:59:50.130Z,58.38
2019-03-22T05:00:24.265Z,60.15
2019-03-22T05:00:58.930Z,58.78
2019-03-22T05:01:33.520Z,60.60
2019-03-22T05:02:07.912Z,56.20
2019-03-22T05:02:42.088Z,62.90
2019-03-22T05:03:16.765Z,59.10
2019-03-22T05:03:50.508Z,56.20
2019-03-22T05:04:24.957Z,61.40
2019-03-22T05:04:59.201Z,59.33
2019-03-22T05:05:33.205Z,59.35
2019-03-22T05:06:07.735Z,56.65
2019-03-22T05:06:42.769Z,66.62
2019-03-22T05:07:18.009Z,56.40
2019-03-22T05:07:51.745Z,62.25
2019-03-22T05:08:25.856Z,58.42
2019-03-22T05:09:00.396Z,58.02
2019-03-22T05:09:34.757Z,56.15
2019-03-22T05:10:09.221Z,59.55
2019-03-22T05:10:43.564Z,68.87
2019-03-22T05:11:17.320Z,55.05
2019-03-22T05:11:51.956Z,56.90
2019-03-22T05:12:25.728Z,58.65
2019-03-22T05:13:00.177Z,59.65
2019-03-22T05:13:35.240Z,62.03
2019-03-22T05:14:09.506Z,62.98
2019-03-22T05:14:44.058Z,59.13
2019-03-22T05:15:18.413Z,55.17
2019-03-22T05:15:52.240Z,63.92
2019-03-22T05:16:26.081Z,59.08
2019-03-22T05:17:00.018Z,60.38
2019-03-22T05:17:33.754Z,58.73
2019-03-22T05:18:08.000Z,63.85
2019-03-22T05:18:44.099Z,62.58
2019-03-22T05:19:18.704Z,62.40
2019-03-22T05:19:53.867Z,58.95
2019-03-22T05:20:28.384Z,59.53
2019-03-22T05:21:02.721Z,57.53
2019-03-22T05:21:36.996Z,59.33
2019-03-22T05:22:12.110Z,58.78
2019-03-22T05:22:46.158Z,62.25
2019-03-22T05:23:21.381Z,66.53
2019-03-22T05:23:56.733Z,61.00
2019-03-22T05:24:30.773Z,59.77
2019-03-22T05:25:04.789Z,59.33
2019-03-22T05:25:38.667Z,66.28
2019-03-22T05:26:14.297Z,66.28
2019-03-22T05:26:48.303Z,64.65
2019-03-22T05:27:22.705Z,60.75
2019-03-22T05:27:58.058Z,68.67
2019-03-22T05:28:32.529Z,63.70
2019-03-22T05:29:08.171Z,64.12
2019-03-22T05:29:42.887Z,66.00
2019-03-22T05:30:37.090Z,58.40
2019-03-22T05:31:32.396Z,56.80
2019-03-22T05:32:07.180Z,65.52
2019-03-22T05:32:40.852Z,62.65
2019-03-22T05:33:14.525Z,62.33
2019-03-22T05:33:48.235Z,63.63
2019-03-22T05:34:22.109Z,63.15
2019-03-22T05:34:55.777Z,56.75
2019-03-22T05:35:29.442Z,62.40
2019-03-22T05:36:03.189Z,58.48
2019-03-22T05:36:36.954Z,59.50
2019-03-22T05:37:10.960Z,67.65
2019-03-22T05:37:44.631Z,65.10
2019-03-22T05:38:18.289Z,61.37
2019-03-22T05:38:51.976Z,62.05
2019-03-22T05:39:25.729Z,62.43
2019-03-22T05:39:59.394Z,61.10
2019-03-22T05:40:33.054Z,61.00
2019-03-22T05:41:06.728Z,61.95
2019-03-22T05:41:40.496Z,65.85
2019-03-22T05:42:14.308Z,64.55
2019-03-22T05:42:48.049Z,68.85
2019-03-22T05:43:21.819Z,63.68
2019-03-22T05:43:55.581Z,69.40
2019-03-22T05:44:29.449Z,62.93
2019-03-22T05:45:03.217Z,62.73
2019-03-22T05:45:36.909Z,65.45
2019-03-22T05:46:10.733Z,60.70
2019-03-22T05:46:44.615Z,62.50
2019-03-22T05:47:18.271Z,61.00
2019-03-22T05:47:51.937Z,61.18
2019-03-22T05:48:25.606Z,65.40
2019-03-22T05:48:59.265Z,61.53
2019-03-22T05:49:33.038Z,66.53
2019-03-22T05:50:06.775Z,56.63
2019-03-22T05:50:40.512Z,59.88
2019-03-22T05:51:14.189Z,65.25
2019-03-22T05:51:47.871Z,58.00
2019-03-22T05:52:21.755Z,58.30
2019-03-22T05:52:55.400Z,61.60
2019-03-22T05:53:29.128Z,63.65
2019-03-22T05:54:02.875Z,62.38
2019-03-22T05:54:36.562Z,58.68
2019-03-22T05:55:10.698Z,63.38
2019-03-22T05:55:44.564Z,59.25
2019-03-22T05:56:18.230Z,62.60
2019-03-22T05:56:51.892Z,63.42
2019-03-22T05:57:25.578Z,55.65
2019-03-22T05:57:59.336Z,59.98
2019-03-22T05:58:33.109Z,64.32
2019-03-22T05:59:06.952Z,54.25
2019-03-22T05:59:42.705Z,63.92
2019-03-22T06:00:17.408Z,60.58
2019-03-22T06:00:51.080Z,63.45
2019-03-22T06:01:24.940Z,60.58
2019-03-22T06:01:58.704Z,68.37
2019-03-22T06:02:32.437Z,63.68
2019-03-22T06:03:06.214Z,72.25
2019-03-22T06:03:39.902Z,68.92
2019-03-22T06:04:13.645Z,65.40
2019-03-22T06:04:47.369Z,70.85
2019-03-22T06:05:21.021Z,77.32
2019-03-22T06:05:54.701Z,67.58
2019-03-22T06:06:28.376Z,67.15
2019-03-22T06:07:02.078Z,73.28
2019-03-22T06:07:37.049Z,69.22
2019-03-22T06:08:10.938Z,78.87
2019-03-22T06:08:44.965Z,67.40
2019-03-22T06:09:18.776Z,65.08
2019-03-22T06:09:52.509Z,66.05
2019-03-22T06:10:26.276Z,65.37
2019-03-22T06:11:00.040Z,75.50
2019-03-22T06:11:33.784Z,67.62
2019-03-22T06:12:07.520Z,64.95
2019-03-22T06:12:41.300Z,62.45
2019-03-22T06:13:15.112Z,72.53
2019-03-22T06:13:48.800Z,68.25
2019-03-22T06:14:22.572Z,65.85
2019-03-22T06:14:56.334Z,62.73
2019-03-22T06:15:29.996Z,67.55
2019-03-22T06:16:03.760Z,57.88
2019-03-22T06:16:37.530Z,66.53
2019-03-22T06:17:11.307Z,62.48
2019-03-22T06:17:51.615Z,61.45
2019-03-22T06:18:20.495Z,59.58
2019-03-22T06:18:54.304Z,69.53
2019-03-22T06:19:27.973Z,65.05
2019-03-22T06:20:01.650Z,64.67
2019-03-22T06:20:35.528Z,61.53
2019-03-22T06:21:09.263Z,61.45
2019-03-22T06:21:43.015Z,62.90
2019-03-22T06:22:16.912Z,65.25
2019-03-22T06:22:50.585Z,59.45
2019-03-22T06:23:24.339Z,63.28
2019-03-22T06:23:58.264Z,63.30
2019-03-22T06:24:31.975Z,65.85
2019-03-22T06:25:05.892Z,66.62
2019-03-22T06:25:39.717Z,68.10
2019-03-22T06:26:13.476Z,63.78
2019-03-22T06:26:47.211Z,71.02
2019-03-22T06:27:20.961Z,70.40
2019-03-22T06:27:54.643Z,62.95
2019-03-22T06:28:28.296Z,65.87
2019-03-22T06:29:01.988Z,64.58
2019-03-22T06:29:35.750Z,59.80
2019-03-22T06:30:10.376Z,64.67
2019-03-22T06:30:44.157Z,65.42
2019-03-22T06:31:20.517Z,61.80
2019-03-22T06:31:53.282Z,63.35
2019-03-22T06:32:27.069Z,63.23
2019-03-22T06:33:00.828Z,64.20
2019-03-22T06:33:34.636Z,65.03
2019-03-22T06:34:08.379Z,65.03
2019-03-22T06:34:42.130Z,67.72
2019-03-22T06:35:16.374Z,64.77
2019-03-22T06:35:50.130Z,62.35
2019-03-22T06:36:24.232Z,65.05
2019-03-22T06:36:58.050Z,62.70
2019-03-22T06:37:31.738Z,59.18
2019-03-22T06:38:05.528Z,61.73
2019-03-22T06:38:39.199Z,67.50
2019-03-22T06:39:12.885Z,68.12
2019-03-22T06:39:46.649Z,71.42
2019-03-22T06:40:20.484Z,65.95
2019-03-22T06:40:54.160Z,67.03
2019-03-22T06:41:27.903Z,65.70
2019-03-22T06:42:02.978Z,71.00
2019-03-22T06:42:36.920Z,59.48
2019-03-22T06:43:10.608Z,59.42
2019-03-22T06:43:44.284Z,66.20
2019-03-22T06:44:18.113Z,67.03
2019-03-22T06:44:51.872Z,63.52
2019-03-22T06:45:25.569Z,53.45
2019-03-22T06:45:59.327Z,62.85
2019-03-22T06:46:33.069Z,62.53
2019-03-22T06:47:06.768Z,66.07
2019-03-22T06:47:40.433Z,62.98
2019-03-22T06:48:14.144Z,63.15
2019-03-22T06:48:47.888Z,66.45
2019-03-22T06:49:21.635Z,65.45
2019-03-22T06:49:55.304Z,68.62
2019-03-22T06:50:29.638Z,61.02
2019-03-22T06:51:03.324Z,68.87
2019-03-22T06:51:37.787Z,59.95
2019-03-22T06:52:11.468Z,64.58
2019-03-22T06:52:45.167Z,68.67
2019-03-22T06:53:18.900Z,66.77
2019-03-22T06:53:52.573Z,64.60
2019-03-22T06:54:31.474Z,64.20
2019-03-22T06:55:01.728Z,63.73
2019-03-22T06:55:35.551Z,63.30
2019-03-22T06:56:09.357Z,68.85
2019-03-22T06:56:43.092Z,58.35
2019-03-22T06:57:16.849Z,64.87
2019-03-22T06:57:50.593Z,70.78
2019-03-22T06:58:24.426Z,61.90
2019-03-22T06:58:58.223Z,64.62
2019-03-22T06:59:31.893Z,61.90
2019-03-22T07:00:07.345Z,62.85
2019-03-22T07:00:41.521Z,62.80
2019-03-22T07:01:15.311Z,69.20
2019-03-22T07:01:49.068Z,61.08
2019-03-22T07:02:22.826Z,64.12
2019-03-22T07:02:56.502Z,68.57
2019-03-22T07:03:30.165Z,66.17
2019-03-22T07:04:04.206Z,64.50
2019-03-22T07:04:37.970Z,68.62
2019-03-22T07:05:13.629Z,67.15
2019-03-22T07:05:47.275Z,68.90
2019-03-22T07:06:21.070Z,68.67
2019-03-22T07:06:54.880Z,66.60
2019-03-22T07:07:28.930Z,58.63
2019-03-22T07:08:02.854Z,65.45
2019-03-22T07:08:36.730Z,68.07
2019-03-22T07:09:10.732Z,66.28
2019-03-22T07:09:44.567Z,66.97
2019-03-22T07:10:18.246Z,71.42
2019-03-22T07:10:52.222Z,65.62
2019-03-22T07:11:25.891Z,67.15
2019-03-22T07:11:59.677Z,67.65
2019-03-22T07:12:33.357Z,63.95
2019-03-22T07:13:07.021Z,73.47
2019-03-22T07:13:40.771Z,74.17
2019-03-22T07:14:14.516Z,71.90
2019-03-22T07:14:48.265Z,76.10
2019-03-22T07:15:22.076Z,66.22
2019-03-22T07:15:56.207Z,76.67
2019-03-22T07:16:29.986Z,69.87
2019-03-22T07:17:03.729Z,73.72
2019-03-22T07:17:37.490Z,66.95
2019-03-22T07:18:11.333Z,68.90